createdAt,value
2018-03-31T00:01:54.878Z,95729.66
2018-03-31T00:04:21.863Z,95728.13
2018-03-31T00:06:48.826Z,95725.35
2018-03-31T00:09:15.779Z,95725.20
2018-03-31T00:11:42.747Z,95719.81
2018-03-31T00:14:09.698Z,95725.52
2018-03-31T00:16:36.652Z,95721.48
2018-03-31T00:19:03.643Z,95724.47
2018-03-31T00:21:30.599Z,95719.13
2018-03-31T00:23:57.575Z,95717.88
2018-03-31T00:26:24.532Z,95714.11
2018-03-31T00:28:51.507Z,95717.05
2018-03-31T00:31:18.464Z,95725.06
2018-03-31T00:33:45.446Z,95728.97
2018-03-31T00:36:12.400Z,95727.80
2018-03-31T00:38:39.374Z,95725.85
2018-03-31T00:41:06.334Z,95720.55
2018-03-31T00:43:33.320Z,95729.36
2018-03-31T00:46:00.271Z,95724.02
2018-03-31T00:48:27.242Z,95716.59
2018-03-31T00:50:54.198Z,95724.97
2018-03-31T00:53:22.150Z,95720.83
2018-03-31T00:55:49.099Z,95719.14
2018-03-31T00:58:16.079Z,95714.58
2018-03-31T01:00:43.030Z,95717.09
2018-03-31T01:03:10.003Z,95719.17
2018-03-31T01:05:36.966Z,95720.78
2018-03-31T01:08:03.928Z,95740.55
2018-03-31T01:10:30.894Z,95743.14
2018-03-31T01:12:57.842Z,95749.65
2018-03-31T01:15:24.819Z,95743.00
2018-03-31T01:17:51.794Z,95729.56
2018-03-31T01:20:18.774Z,95737.22
2018-03-31T01:22:45.718Z,95746.63
2018-03-31T01:25:12.687Z,95740.16
2018-03-31T01:27:39.643Z,95744.27
2018-03-31T01:30:06.624Z,95745.77
2018-03-31T01:32:33.583Z,95749.47
2018-03-31T01:35:00.567Z,95748.95
2018-03-31T01:37:27.515Z,95745.55
2018-03-31T01:39:54.483Z,95748.69
2018-03-31T01:42:21.496Z,95741.86
2018-03-31T01:44:48.422Z,95743.53
2018-03-31T01:47:15.377Z,95734.97
2018-03-31T01:49:42.338Z,95734.67
2018-03-31T01:52:09.283Z,95737.39
2018-03-31T01:54:36.246Z,95737.66
2018-03-31T01:57:03.189Z,95747.12
2018-03-31T01:59:30.134Z,95731.58
2018-03-31T02:01:57.102Z,95748.94
2018-03-31T02:04:24.047Z,95757.52
2018-03-31T02:06:51.023Z,95760.31
2018-03-31T02:09:17.962Z,95754.05
2018-03-31T02:11:44.931Z,95763.96
2018-03-31T02:14:11.888Z,95756.11
2018-03-31T02:16:38.854Z,95766.90
2018-03-31T02:19:05.799Z,95753.88
2018-03-31T02:21:32.768Z,95761.30
2018-03-31T02:23:59.720Z,95767.90
2018-03-31T02:26:26.683Z,95764.45
2018-03-31T02:28:53.617Z,95760.34
2018-03-31T02:31:20.593Z,95754.07
2018-03-31T02:33:47.547Z,95755.99
2018-03-31T02:36:14.527Z,95745.10
2018-03-31T02:38:41.462Z,95750.91
2018-03-31T02:41:08.436Z,95757.08
2018-03-31T02:43:35.379Z,95749.23
2018-03-31T02:46:02.350Z,95755.08
2018-03-31T02:48:29.294Z,95758.73
2018-03-31T02:50:56.267Z,95771.06
2018-03-31T02:53:23.232Z,95765.84
2018-03-31T02:55:50.197Z,95756.50
2018-03-31T02:58:17.167Z,95760.52
2018-03-31T03:00:44.120Z,95758.08
2018-03-31T03:03:11.091Z,95755.16
2018-03-31T03:05:38.057Z,95753.10
2018-03-31T03:08:05.017Z,95753.83
2018-03-31T03:10:31.977Z,95763.47
2018-03-31T03:12:58.952Z,95759.70
2018-03-31T03:15:25.896Z,95756.33
2018-03-31T03:17:52.862Z,95759.78
2018-03-31T03:20:19.802Z,95761.33
2018-03-31T03:22:46.771Z,95771.23
2018-03-31T03:25:13.714Z,95780.79
2018-03-31T03:27:40.708Z,95766.16
2018-03-31T03:30:07.660Z,95762.41
2018-03-31T03:32:34.626Z,95751.52
2018-03-31T03:35:01.628Z,95748.41
2018-03-31T03:37:28.606Z,95752.48
2018-03-31T03:39:55.551Z,95744.56
2018-03-31T03:42:22.524Z,95749.50
2018-03-31T03:44:49.470Z,95747.64
2018-03-31T03:47:16.437Z,95755.89
2018-03-31T03:49:43.378Z,95755.98
2018-03-31T03:52:10.314Z,95755.84
2018-03-31T03:54:37.280Z,95751.66
2018-03-31T03:57:04.241Z,95745.73
2018-03-31T03:59:31.214Z,95739.78
2018-03-31T04:01:58.158Z,95743.53
2018-03-31T04:04:25.159Z,95738.91
2018-03-31T04:06:52.098Z,95738.91
2018-03-31T04:09:19.073Z,95742.22
2018-03-31T04:11:46.035Z,95751.46
2018-03-31T04:14:13.013Z,95743.07
2018-03-31T04:16:39.991Z,95739.56
2018-03-31T04:19:06.962Z,95748.66
2018-03-31T04:21:33.907Z,95744.27
2018-03-31T04:24:00.875Z,95747.23
2018-03-31T04:26:27.822Z,95745.09
2018-03-31T04:28:54.788Z,95748.31
2018-03-31T04:31:21.747Z,95743.20
2018-03-31T04:33:48.722Z,95745.02
2018-03-31T04:36:15.662Z,95740.45
2018-03-31T04:38:42.641Z,95732.12
2018-03-31T04:41:09.595Z,95730.49
2018-03-31T04:43:36.551Z,95729.16
2018-03-31T04:46:03.522Z,95724.52
2018-03-31T04:48:30.479Z,95726.63
2018-03-31T04:50:57.477Z,95727.04
2018-03-31T04:53:24.438Z,95731.55
2018-03-31T04:55:51.434Z,95739.41
2018-03-31T04:58:18.382Z,95745.73
2018-03-31T05:00:45.379Z,95741.27
2018-03-31T05:03:12.351Z,95754.24
2018-03-31T05:05:39.334Z,95751.63
2018-03-31T05:08:06.288Z,95750.33
2018-03-31T05:10:33.255Z,95758.89
2018-03-31T05:13:00.206Z,95756.39
2018-03-31T05:15:27.173Z,95750.39
2018-03-31T05:17:54.129Z,95770.97
2018-03-31T05:20:21.127Z,95775.55
2018-03-31T05:22:48.084Z,95772.24
2018-03-31T05:25:15.059Z,95773.38
2018-03-31T05:27:42.084Z,95778.22
2018-03-31T05:30:09.055Z,95777.76
2018-03-31T05:32:36.011Z,95779.67
2018-03-31T05:35:02.981Z,95776.69
2018-03-31T05:37:29.931Z,95778.20
2018-03-31T05:39:56.886Z,95765.05
2018-03-31T05:42:23.867Z,95757.73
2018-03-31T05:44:50.823Z,95750.67
2018-03-31T05:47:17.801Z,95761.36
2018-03-31T05:49:44.748Z,95761.16
2018-03-31T05:52:11.746Z,95769.63
2018-03-31T05:54:38.696Z,95773.78
2018-03-31T05:57:05.716Z,95776.34
2018-03-31T05:59:32.695Z,95778.45
2018-03-31T06:01:59.673Z,95772.48
2018-03-31T06:04:26.621Z,95771.89
2018-03-31T06:06:53.588Z,95774.47
2018-03-31T06:09:21.609Z,95779.27
2018-03-31T06:11:48.626Z,95728.33
2018-03-31T06:14:15.579Z,95777.67
2018-03-31T06:16:42.555Z,95777.89
2018-03-31T06:19:09.502Z,95769.06
2018-03-31T06:21:36.698Z,95776.64
2018-03-31T06:24:03.679Z,95778.87
2018-03-31T06:26:30.690Z,95780.30
2018-03-31T06:28:57.660Z,95782.88
2018-03-31T06:31:24.649Z,95783.66
2018-03-31T06:33:51.624Z,95795.52
2018-03-31T06:36:18.592Z,95804.17
2018-03-31T06:38:45.572Z,95804.62
2018-03-31T06:41:12.563Z,95797.08
2018-03-31T06:43:39.553Z,95797.53
2018-03-31T06:46:06.509Z,95796.66
2018-03-31T06:48:33.492Z,95800.63
2018-03-31T06:51:00.457Z,95801.45
2018-03-31T06:53:27.450Z,95801.36
2018-03-31T06:55:54.411Z,95801.70
2018-03-31T06:58:21.454Z,95798.30
2018-03-31T07:00:48.368Z,95800.42
2018-03-31T07:03:15.343Z,95802.68
2018-03-31T07:05:42.316Z,95803.26
2018-03-31T07:08:09.301Z,95804.28
2018-03-31T07:10:36.258Z,95808.22
2018-03-31T07:13:03.239Z,95815.38
2018-03-31T07:15:30.225Z,95808.56
2018-03-31T07:17:57.211Z,95811.34
2018-03-31T07:20:24.172Z,95815.03
2018-03-31T07:22:51.154Z,95806.64
2018-03-31T07:25:18.136Z,95818.69
2018-03-31T07:27:45.226Z,95812.89
2018-03-31T07:30:12.190Z,95810.91
2018-03-31T07:32:39.147Z,95808.87
2018-03-31T07:35:06.119Z,95800.66
2018-03-31T07:37:33.139Z,95802.00
2018-03-31T07:40:00.160Z,95796.02
2018-03-31T07:42:27.110Z,95788.17
2018-03-31T07:44:54.075Z,95793.34
2018-03-31T07:47:21.037Z,95803.86
2018-03-31T07:49:48.018Z,95805.98
2018-03-31T07:52:15.256Z,95819.66
2018-03-31T07:54:42.249Z,95813.98
2018-03-31T07:57:09.198Z,95805.27
2018-03-31T07:59:36.188Z,95800.70
2018-03-31T08:02:03.153Z,95797.14
2018-03-31T08:04:30.144Z,95798.64
2018-03-31T08:06:57.117Z,95800.89
2018-03-31T08:09:24.114Z,95803.70
2018-03-31T08:11:51.073Z,95805.80
2018-03-31T08:14:18.052Z,95802.86
2018-03-31T08:16:45.036Z,95803.58
2018-03-31T08:19:12.016Z,95810.64
2018-03-31T08:21:38.991Z,95805.45
2018-03-31T08:24:05.996Z,95808.92
2018-03-31T08:26:32.956Z,95808.80
2018-03-31T08:28:59.913Z,95802.72
2018-03-31T08:31:26.884Z,95794.89
2018-03-31T08:33:53.838Z,95793.66
2018-03-31T08:36:20.812Z,95795.69
2018-03-31T08:38:47.770Z,95795.01
2018-03-31T08:41:14.740Z,95784.86
2018-03-31T08:43:41.696Z,95779.75
2018-03-31T08:46:08.691Z,95771.74
2018-03-31T08:48:35.651Z,95768.68
2018-03-31T08:51:02.618Z,95757.91
2018-03-31T08:53:29.583Z,95754.56
2018-03-31T08:55:56.561Z,95754.86
2018-03-31T08:58:24.096Z,95746.37
2018-03-31T09:00:51.078Z,95736.00
2018-03-31T09:03:18.073Z,95750.41
2018-03-31T09:05:45.079Z,95745.20
2018-03-31T09:08:12.022Z,95754.63
2018-03-31T09:10:39.000Z,95747.44
2018-03-31T09:13:05.955Z,95752.45
2018-03-31T09:15:32.948Z,95744.73
2018-03-31T09:17:59.926Z,95749.88
2018-03-31T09:20:26.886Z,95744.38
2018-03-31T09:22:53.902Z,95733.72
2018-03-31T09:25:20.846Z,95735.34
2018-03-31T09:27:47.816Z,95727.58
2018-03-31T09:30:14.797Z,95731.20
2018-03-31T09:32:41.782Z,95721.86
2018-03-31T09:35:08.751Z,95717.46
2018-03-31T09:37:35.759Z,95717.05
2018-03-31T09:40:02.722Z,95720.09
2018-03-31T09:42:29.703Z,95727.02
2018-03-31T09:44:56.668Z,95726.00
2018-03-31T09:47:23.655Z,95725.05
2018-03-31T09:49:50.628Z,95719.84
2018-03-31T09:52:17.612Z,95721.69
2018-03-31T09:54:44.576Z,95716.72
2018-03-31T09:57:11.552Z,95727.17
2018-03-31T09:59:38.516Z,95727.31
2018-03-31T10:02:05.509Z,95739.32
2018-03-31T10:04:32.464Z,95733.75
2018-03-31T10:06:59.446Z,95745.45
2018-03-31T10:09:26.398Z,95751.23
2018-03-31T10:11:53.376Z,95743.64
2018-03-31T10:14:20.331Z,95743.16
2018-03-31T10:16:47.305Z,95748.70
2018-03-31T10:19:14.283Z,95746.49
2018-03-31T10:21:41.250Z,95749.73
2018-03-31T10:24:08.234Z,95742.81
2018-03-31T10:26:35.214Z,95742.72
2018-03-31T10:29:02.191Z,95744.98
2018-03-31T10:31:29.148Z,95741.19
2018-03-31T10:33:56.146Z,95742.91
2018-03-31T10:36:23.123Z,95739.09
2018-03-31T10:38:50.100Z,95746.64
2018-03-31T10:41:17.065Z,95760.56
2018-03-31T10:43:44.032Z,95754.86
2018-03-31T10:46:10.978Z,95754.86
2018-03-31T10:48:37.950Z,95746.03
2018-03-31T10:51:04.899Z,95748.20
2018-03-31T10:53:31.863Z,95735.23
2018-03-31T10:55:58.817Z,95743.90
2018-03-31T10:58:25.803Z,95744.03
2018-03-31T11:00:52.751Z,95743.47
2018-03-31T11:03:19.728Z,95740.20
2018-03-31T11:05:46.677Z,95730.80
2018-03-31T11:08:13.661Z,95734.63
2018-03-31T11:10:40.635Z,95741.25
2018-03-31T11:13:07.584Z,95740.25
2018-03-31T11:15:34.562Z,95734.39
2018-03-31T11:18:01.516Z,95735.20
2018-03-31T11:20:28.493Z,95720.43
2018-03-31T11:22:55.464Z,95726.32
2018-03-31T11:25:22.446Z,95725.34
2018-03-31T11:27:49.401Z,95724.03
2018-03-31T11:30:16.393Z,95719.39
2018-03-31T11:32:43.352Z,95721.03
2018-03-31T11:35:10.323Z,95712.03
2018-03-31T11:37:37.285Z,95714.12
2018-03-31T11:40:04.264Z,95719.50
2018-03-31T11:42:31.210Z,95707.26
2018-03-31T11:44:58.174Z,95709.72
2018-03-31T11:47:25.133Z,95706.12
2018-03-31T11:49:52.114Z,95705.55
2018-03-31T11:52:19.067Z,95708.30
2018-03-31T11:54:46.054Z,95705.98
2018-03-31T11:57:13.931Z,95702.27
2018-03-31T11:59:40.902Z,95687.71
2018-03-31T12:02:07.871Z,95682.89
2018-03-31T12:04:34.841Z,95688.20
2018-03-31T12:07:01.791Z,95689.50
2018-03-31T12:09:28.729Z,95701.04
2018-03-31T12:11:55.690Z,95685.53
2018-03-31T12:14:22.631Z,95682.09
2018-03-31T12:16:49.595Z,95665.28
2018-03-31T12:19:16.553Z,95673.91
2018-03-31T12:21:43.520Z,95673.83
2018-03-31T12:24:10.468Z,95672.10
2018-03-31T12:26:37.434Z,95678.06
2018-03-31T12:29:04.387Z,95688.49
2018-03-31T12:31:31.418Z,95687.50
2018-03-31T12:33:58.367Z,95690.34
2018-03-31T12:36:25.340Z,95689.30
2018-03-31T12:38:52.327Z,95691.94
2018-03-31T12:41:19.304Z,95694.48
2018-03-31T12:43:46.255Z,95689.22
2018-03-31T12:46:13.226Z,95682.50
2018-03-31T12:48:40.171Z,95684.50
2018-03-31T12:51:07.137Z,95636.44
2018-03-31T12:53:34.088Z,95670.12
2018-03-31T12:56:01.063Z,95679.45
2018-03-31T12:58:28.014Z,95679.00
2018-03-31T13:00:55.001Z,95678.73
2018-03-31T13:03:21.951Z,95675.93
2018-03-31T13:05:48.911Z,95677.62
2018-03-31T13:08:15.886Z,95680.83
2018-03-31T13:10:42.831Z,95679.37
2018-03-31T13:13:09.794Z,95685.23
2018-03-31T13:15:36.738Z,95681.78
2018-03-31T13:18:03.748Z,95672.95
2018-03-31T13:20:30.698Z,95674.23
2018-03-31T13:22:57.670Z,95667.52
2018-03-31T13:25:25.563Z,95676.16
2018-03-31T13:27:52.537Z,95679.64
2018-03-31T13:30:19.484Z,95681.00
2018-03-31T13:32:46.455Z,95673.28
2018-03-31T13:35:13.404Z,95675.55
2018-03-31T13:37:40.368Z,95675.72
2018-03-31T13:40:07.327Z,95677.67
2018-03-31T13:42:34.297Z,95670.31
2018-03-31T13:45:01.241Z,95671.56
2018-03-31T13:47:28.216Z,95658.77
2018-03-31T13:49:55.154Z,95665.10
2018-03-31T13:52:22.127Z,95659.83
2018-03-31T13:54:49.076Z,95661.19
2018-03-31T13:57:16.054Z,95657.78
2018-03-31T13:59:43.011Z,95670.84
2018-03-31T14:02:09.950Z,95660.30
2018-03-31T14:04:36.920Z,95655.91
2018-03-31T14:07:03.862Z,95659.92
2018-03-31T14:09:30.883Z,95651.41
2018-03-31T14:11:57.829Z,95650.95
2018-03-31T14:14:24.798Z,95648.64
2018-03-31T14:16:51.752Z,95647.44
2018-03-31T14:19:18.723Z,95653.02
2018-03-31T14:21:45.675Z,95653.81
2018-03-31T14:24:12.651Z,95648.63
2018-03-31T14:26:39.599Z,95649.21
2018-03-31T14:29:07.465Z,95652.61
2018-03-31T14:31:34.415Z,95656.33
2018-03-31T14:34:01.380Z,95650.13
2018-03-31T14:36:28.336Z,95654.23
2018-03-31T14:38:55.314Z,95660.38
2018-03-31T14:41:22.262Z,95657.22
2018-03-31T14:43:49.226Z,95657.71
2018-03-31T14:46:16.171Z,95657.72
2018-03-31T14:48:43.130Z,95653.95
2018-03-31T14:51:10.078Z,95653.56
2018-03-31T14:53:37.057Z,95655.28
2018-03-31T14:56:04.002Z,95654.60
2018-03-31T14:58:30.938Z,95659.27
2018-03-31T15:00:57.915Z,95656.33
2018-03-31T15:03:24.863Z,95661.16
2018-03-31T15:05:51.825Z,95661.22
2018-03-31T15:08:18.787Z,95659.48
2018-03-31T15:10:45.759Z,95653.43
2018-03-31T15:13:12.703Z,95654.05
2018-03-31T15:15:39.678Z,95654.80
2018-03-31T15:18:06.618Z,95661.66
2018-03-31T15:20:33.583Z,95666.97
2018-03-31T15:23:00.536Z,95662.07
2018-03-31T15:25:27.527Z,95664.67
2018-03-31T15:27:54.479Z,95662.95
2018-03-31T15:30:21.634Z,95662.16
2018-03-31T15:32:48.649Z,95658.55
2018-03-31T15:35:15.626Z,95664.58
2018-03-31T15:37:43.526Z,95654.69
2018-03-31T15:40:10.565Z,95659.67
2018-03-31T15:42:37.534Z,95664.25
2018-03-31T15:45:04.515Z,95662.51
2018-03-31T15:47:31.535Z,95661.05
2018-03-31T15:49:58.570Z,95653.48
2018-03-31T15:52:25.510Z,95657.86
2018-03-31T15:54:52.598Z,95653.30
2018-03-31T15:57:19.588Z,95656.45
2018-03-31T15:59:46.583Z,95656.31
2018-03-31T16:02:13.573Z,95652.14
2018-03-31T16:04:40.662Z,95649.72
2018-03-31T16:07:07.642Z,95650.94
2018-03-31T16:09:34.690Z,95650.30
2018-03-31T16:12:02.699Z,95647.84
2018-03-31T16:14:29.719Z,95644.69
2018-03-31T16:16:56.701Z,95647.20
2018-03-31T16:19:23.670Z,95651.82
2018-03-31T16:21:51.534Z,95648.72
2018-03-31T16:24:18.529Z,95640.17
2018-03-31T16:26:45.517Z,95639.91
2018-03-31T16:29:12.463Z,95637.67
2018-03-31T16:31:39.502Z,95639.26
2018-03-31T16:34:06.474Z,95651.63
2018-03-31T16:36:33.565Z,95649.44
2018-03-31T16:39:00.538Z,95655.56
2018-03-31T16:41:27.510Z,95658.78
2018-03-31T16:43:54.531Z,95659.77
2018-03-31T16:46:21.583Z,95663.15
2018-03-31T16:48:48.598Z,95669.05
2018-03-31T16:51:15.626Z,95673.95
2018-03-31T16:53:42.620Z,95674.64
2018-03-31T16:56:09.631Z,95675.56
2018-03-31T16:58:36.709Z,95680.91
2018-03-31T17:01:03.660Z,95680.95
2018-03-31T17:03:30.623Z,95683.13
2018-03-31T17:05:57.571Z,95687.66
2018-03-31T17:08:24.541Z,95685.05
2018-03-31T17:10:51.478Z,95583.23
2018-03-31T17:13:18.443Z,95689.51
2018-03-31T17:15:45.391Z,95694.78
2018-03-31T17:18:12.362Z,95694.40
2018-03-31T17:20:39.312Z,95699.80
2018-03-31T17:23:06.278Z,95704.03
2018-03-31T17:25:33.228Z,95707.63
2018-03-31T17:28:00.191Z,95707.77
2018-03-31T17:30:27.150Z,95711.93
2018-03-31T17:32:54.120Z,95713.27
2018-03-31T17:35:21.079Z,95714.94
2018-03-31T17:37:48.042Z,95710.84
2018-03-31T17:40:14.991Z,95719.04
2018-03-31T17:42:41.943Z,95725.27
2018-03-31T17:45:08.915Z,95724.91
2018-03-31T17:47:37.319Z,95734.08
2018-03-31T17:50:04.326Z,95729.64
2018-03-31T17:52:31.267Z,95736.56
2018-03-31T17:54:58.237Z,95738.37
2018-03-31T17:57:25.182Z,95736.89
2018-03-31T17:59:52.155Z,95747.42
2018-03-31T18:02:19.149Z,95753.69
2018-03-31T18:04:46.130Z,95756.32
2018-03-31T18:07:13.070Z,95768.00
2018-03-31T18:09:40.030Z,95774.60
2018-03-31T18:12:06.971Z,95779.13
2018-03-31T18:14:33.932Z,95791.25
2018-03-31T18:17:00.866Z,95799.17
2018-03-31T18:19:27.831Z,95808.36
2018-03-31T18:21:54.787Z,95816.48
2018-03-31T18:24:21.763Z,95827.72
2018-03-31T18:26:48.717Z,95825.30
2018-03-31T18:29:15.707Z,95824.53
2018-03-31T18:31:42.660Z,95823.80
2018-03-31T18:34:09.627Z,95824.30
2018-03-31T18:36:36.577Z,95828.20
2018-03-31T18:39:03.654Z,95830.24
2018-03-31T18:41:30.576Z,95830.03
2018-03-31T18:43:57.579Z,95835.83
2018-03-31T18:46:24.538Z,95844.26
2018-03-31T18:48:51.482Z,95848.83
2018-03-31T18:51:18.451Z,95860.02
2018-03-31T18:53:45.394Z,95859.95
2018-03-31T18:56:12.353Z,95866.65
2018-03-31T18:58:39.294Z,95863.63
2018-03-31T19:01:06.260Z,95866.92
2018-03-31T19:03:33.211Z,95864.78
2018-03-31T19:06:00.208Z,95873.30
2018-03-31T19:08:27.150Z,95873.88
2018-03-31T19:10:54.392Z,95883.72
2018-03-31T19:13:21.337Z,95886.88
2018-03-31T19:15:48.295Z,95890.91
2018-03-31T19:18:15.230Z,95886.93
2018-03-31T19:20:42.195Z,95900.07
2018-03-31T19:23:09.132Z,95897.78
2018-03-31T19:25:36.101Z,95909.28
2018-03-31T19:28:03.041Z,95863.03
2018-03-31T19:30:35.515Z,95904.52
2018-03-31T19:33:02.458Z,95906.88
2018-03-31T19:35:29.423Z,95898.06
2018-03-31T19:37:56.387Z,95915.55
2018-03-31T19:40:23.339Z,95911.34
2018-03-31T19:42:50.298Z,95916.26
2018-03-31T19:45:17.259Z,95919.16
2018-03-31T19:47:44.231Z,95915.09
2018-03-31T19:50:11.196Z,95917.18
2018-03-31T19:52:38.166Z,95922.02
2018-03-31T19:55:05.147Z,95927.84
2018-03-31T19:57:32.113Z,95932.67
2018-03-31T19:59:59.054Z,95929.24
2018-03-31T20:02:26.019Z,95917.42
2018-03-31T20:04:52.971Z,95946.75
2018-03-31T20:07:19.938Z,95946.17
2018-03-31T20:09:46.886Z,95945.98
2018-03-31T20:12:13.859Z,95946.97
2018-03-31T20:14:40.808Z,95946.72
2018-03-31T20:17:07.796Z,95951.11
2018-03-31T20:19:34.733Z,95949.17
2018-03-31T20:22:01.705Z,95947.45
2018-03-31T20:24:28.650Z,95946.91
2018-03-31T20:26:55.599Z,95947.05
2018-03-31T20:29:22.562Z,95942.81
2018-03-31T20:31:49.535Z,95949.29
2018-03-31T20:34:16.514Z,95956.36
2018-03-31T20:36:43.471Z,95958.04
2018-03-31T20:39:10.439Z,95958.39
2018-03-31T20:41:37.385Z,95964.59
2018-03-31T20:44:04.357Z,95969.05
2018-03-31T20:46:31.313Z,95969.57
2018-03-31T20:48:58.288Z,95971.45
2018-03-31T20:51:25.235Z,95972.84
2018-03-31T20:53:52.215Z,95969.92
2018-03-31T20:56:19.183Z,95975.27
2018-03-31T20:58:46.158Z,95974.79
2018-03-31T21:01:13.116Z,95977.73
2018-03-31T21:03:40.081Z,95978.11
2018-03-31T21:06:07.026Z,95972.44
2018-03-31T21:08:34.015Z,95979.64
2018-03-31T21:11:00.962Z,95978.93
2018-03-31T21:13:27.932Z,95985.32
2018-03-31T21:15:54.898Z,95984.08
2018-03-31T21:18:21.879Z,95980.55
2018-03-31T21:20:48.888Z,95979.11
2018-03-31T21:23:15.839Z,95972.72
2018-03-31T21:25:42.812Z,95989.66
2018-03-31T21:28:09.870Z,95996.23
2018-03-31T21:30:36.873Z,95994.90
2018-03-31T21:33:03.827Z,95991.63
2018-03-31T21:35:30.949Z,95997.61
2018-03-31T21:37:57.915Z,95993.96
2018-03-31T21:40:24.890Z,95986.88
2018-03-31T21:42:52.083Z,95997.52
2018-03-31T21:45:19.236Z,95990.69
2018-03-31T21:47:46.202Z,95988.47
2018-03-31T21:50:13.177Z,95998.27
2018-03-31T21:52:40.288Z,95997.92
2018-03-31T21:55:07.302Z,95992.63
2018-03-31T21:57:34.266Z,95991.31
2018-03-31T22:00:01.240Z,95986.75
2018-03-31T22:02:28.198Z,95985.63
2018-03-31T22:04:55.167Z,95983.79
2018-03-31T22:07:22.131Z,95986.28
2018-03-31T22:09:49.114Z,95987.47
2018-03-31T22:12:16.062Z,95997.77
2018-03-31T22:14:48.538Z,95992.09
2018-03-31T22:17:15.491Z,96000.91
2018-03-31T22:19:42.447Z,95989.25
2018-03-31T22:22:09.418Z,95988.16
2018-03-31T22:24:36.371Z,95992.25
2018-03-31T22:27:03.342Z,95995.39
2018-03-31T22:29:30.327Z,95999.20
2018-03-31T22:31:57.299Z,96009.36
2018-03-31T22:34:24.265Z,96011.66
2018-03-31T22:36:51.238Z,96011.09
2018-03-31T22:39:18.225Z,96019.27
2018-03-31T22:41:45.275Z,96021.97
2018-03-31T22:44:12.218Z,96012.11
2018-03-31T22:46:39.189Z,96013.53
2018-03-31T22:49:06.137Z,96020.28
2018-03-31T22:51:33.111Z,96026.20
2018-03-31T22:54:00.083Z,96027.86
2018-03-31T22:56:27.052Z,96031.41
2018-03-31T22:58:53.994Z,96033.94
2018-03-31T23:01:20.971Z,96026.51
2018-03-31T23:03:48.286Z,96028.73
2018-03-31T23:06:15.267Z,96031.64
2018-03-31T23:08:42.219Z,96031.45
2018-03-31T23:11:09.176Z,96030.09
2018-03-31T23:13:36.151Z,96034.64
2018-03-31T23:16:03.096Z,96036.05
2018-03-31T23:18:30.105Z,96040.43
2018-03-31T23:20:57.060Z,96039.38
2018-03-31T23:23:24.031Z,96037.56
2018-03-31T23:25:50.978Z,96047.30
2018-03-31T23:28:17.946Z,96051.00
2018-03-31T23:30:44.899Z,96053.56
2018-03-31T23:33:11.867Z,96053.27
2018-03-31T23:35:38.827Z,96061.34
2018-03-31T23:38:05.794Z,96059.39
2018-03-31T23:40:32.747Z,96066.91
2018-03-31T23:42:59.719Z,96072.83
2018-03-31T23:45:26.669Z,96079.80
2018-03-31T23:47:53.644Z,96074.78
2018-03-31T23:50:20.621Z,96075.70
2018-03-31T23:52:47.586Z,96080.84
2018-03-31T23:55:14.530Z,96080.55
2018-03-31T23:57:41.503Z,96081.35
